createdAt,value
2023-02-09T00:01:02.195Z,59.77
2023-02-09T00:02:05.834Z,59.83
2023-02-09T00:03:08.901Z,60.03
2023-02-09T00:04:11.620Z,59.67
2023-02-09T00:05:14.297Z,60.02
2023-02-09T00:06:20.776Z,60.19
2023-02-09T00:07:23.358Z,59.72
2023-02-09T00:08:26.085Z,60.36
2023-02-09T00:09:28.913Z,60.31
2023-02-09T00:10:31.603Z,60.03
2023-02-09T00:11:52.782Z,60.16
2023-02-09T00:13:13.822Z,59.89
2023-02-09T00:14:21.523Z,59.93
2023-02-09T00:15:24.642Z,59.72
2023-02-09T00:16:27.487Z,59.77
2023-02-09T00:17:30.165Z,59.14
2023-02-09T00:18:34.370Z,59.30
2023-02-09T00:19:36.994Z,59.47
2023-02-09T00:20:39.678Z,59.53
2023-02-09T00:21:42.791Z,59.23
2023-02-09T00:22:45.443Z,59.53
2023-02-09T00:23:48.158Z,59.76
2023-02-09T00:24:51.027Z,60.09
2023-02-09T00:25:54.814Z,59.98
2023-02-09T00:26:57.489Z,60.37
2023-02-09T00:28:00.219Z,59.60
2023-02-09T00:29:03.208Z,58.92
2023-02-09T00:30:06.292Z,58.92
2023-02-09T00:31:11.769Z,59.35
2023-02-09T00:32:14.514Z,60.78
2023-02-09T00:33:17.174Z,60.52
2023-02-09T00:34:20.720Z,60.30
2023-02-09T00:35:23.416Z,59.86
2023-02-09T00:36:26.025Z,59.70
2023-02-09T00:37:28.708Z,59.70
2023-02-09T00:38:31.402Z,59.91
2023-02-09T00:39:34.053Z,59.91
2023-02-09T00:40:38.357Z,59.93
2023-02-09T00:41:59.477Z,59.87
2023-02-09T00:43:02.236Z,60.59
2023-02-09T00:44:05.040Z,60.56
2023-02-09T00:45:08.376Z,60.26
2023-02-09T00:46:11.273Z,60.01
2023-02-09T00:47:14.039Z,59.95
2023-02-09T00:48:16.779Z,60.29
2023-02-09T00:49:19.420Z,60.34
2023-02-09T00:50:22.177Z,60.53
2023-02-09T00:51:24.838Z,60.81
2023-02-09T00:52:27.459Z,61.19
2023-02-09T00:53:30.221Z,61.62
2023-02-09T00:54:32.906Z,61.21
2023-02-09T00:55:35.529Z,61.21
2023-02-09T00:56:38.191Z,61.38
2023-02-09T00:57:40.869Z,61.02
2023-02-09T00:58:43.585Z,60.87
2023-02-09T00:59:46.317Z,60.69
2023-02-09T01:00:50.155Z,60.61
2023-02-09T01:01:52.823Z,60.69
2023-02-09T01:02:57.831Z,60.67
2023-02-09T01:04:00.426Z,60.66
2023-02-09T01:05:03.293Z,60.59
2023-02-09T01:06:06.539Z,60.22
2023-02-09T01:07:09.307Z,60.67
2023-02-09T01:08:12.231Z,60.36
2023-02-09T01:09:14.851Z,60.36
2023-02-09T01:10:17.578Z,60.49
2023-02-09T01:11:20.857Z,60.64
2023-02-09T01:12:24.637Z,60.84
2023-02-09T01:13:27.405Z,61.07
2023-02-09T01:14:30.075Z,60.85
2023-02-09T01:15:32.732Z,60.92
2023-02-09T01:16:35.430Z,60.88
2023-02-09T01:17:38.817Z,60.61
2023-02-09T01:18:42.016Z,60.61
2023-02-09T01:19:44.845Z,61.16
2023-02-09T01:20:47.687Z,60.83
2023-02-09T01:21:50.572Z,60.67
2023-02-09T01:22:53.302Z,60.73
2023-02-09T01:23:56.080Z,60.76
2023-02-09T01:24:58.773Z,61.07
2023-02-09T01:26:07.707Z,60.90
2023-02-09T01:27:10.463Z,60.85
2023-02-09T01:28:13.103Z,61.52
2023-02-09T01:29:18.904Z,61.40
2023-02-09T01:30:21.671Z,61.31
2023-02-09T01:31:26.286Z,61.07
2023-02-09T01:32:29.129Z,60.87
2023-02-09T01:33:32.352Z,60.90
2023-02-09T01:34:35.178Z,60.74
2023-02-09T01:35:37.813Z,60.82
2023-02-09T01:36:40.685Z,61.00
2023-02-09T01:37:43.351Z,60.94
2023-02-09T01:38:46.272Z,60.75
2023-02-09T01:39:49.210Z,60.83
2023-02-09T01:40:52.310Z,61.20
2023-02-09T01:41:55.094Z,60.96
2023-02-09T01:42:57.741Z,60.83
2023-02-09T01:44:03.054Z,60.41
2023-02-09T01:45:19.957Z,60.31
2023-02-09T01:46:25.014Z,60.52
2023-02-09T01:47:27.729Z,60.54
2023-02-09T01:48:31.830Z,60.77
2023-02-09T01:49:34.506Z,60.80
2023-02-09T01:50:42.995Z,61.10
2023-02-09T01:52:02.315Z,60.86
2023-02-09T01:53:05.282Z,60.92
2023-02-09T01:54:16.044Z,61.21
2023-02-09T01:55:23.690Z,61.21
2023-02-09T01:56:32.394Z,61.77
2023-02-09T01:57:46.133Z,61.93
2023-02-09T01:58:49.919Z,61.94
2023-02-09T01:59:59.470Z,62.50
2023-02-09T02:01:02.565Z,61.88
2023-02-09T02:02:06.835Z,61.63
2023-02-09T02:03:13.594Z,61.58
2023-02-09T02:04:16.755Z,61.75
2023-02-09T02:05:20.718Z,61.77
2023-02-09T02:06:23.492Z,61.86
2023-02-09T02:07:39.295Z,61.48
2023-02-09T02:08:52.443Z,61.21
2023-02-09T02:09:55.565Z,61.19
2023-02-09T02:10:59.199Z,61.16
2023-02-09T02:12:02.048Z,61.73
2023-02-09T02:13:05.364Z,61.88
2023-02-09T02:14:07.995Z,61.64
2023-02-09T02:15:11.381Z,61.88
2023-02-09T02:16:38.549Z,61.74
2023-02-09T02:18:01.892Z,62.04
2023-02-09T02:19:22.424Z,61.90
2023-02-09T02:20:43.431Z,61.72
2023-02-09T02:22:04.796Z,61.19
2023-02-09T02:23:45.470Z,60.92
2023-02-09T02:25:10.615Z,61.14
2023-02-09T02:26:25.321Z,61.04
2023-02-09T02:27:47.494Z,60.72
2023-02-09T02:29:20.597Z,61.53
2023-02-09T02:30:36.596Z,61.15
2023-02-09T02:32:07.020Z,61.81
2023-02-09T02:33:34.265Z,60.93
2023-02-09T02:34:45.614Z,61.61
2023-02-09T02:35:57.833Z,61.71
2023-02-09T02:37:06.128Z,61.41
2023-02-09T02:38:40.997Z,61.31
2023-02-09T02:39:57.243Z,61.65
2023-02-09T02:41:08.884Z,61.65
2023-02-09T02:43:00.262Z,62.08
2023-02-09T02:44:15.637Z,61.63
2023-02-09T02:45:36.063Z,62.13
2023-02-09T02:46:47.822Z,61.56
2023-02-09T02:48:13.807Z,62.16
2023-02-09T02:50:02.830Z,61.87
2023-02-09T02:51:09.554Z,62.04
2023-02-09T02:52:13.097Z,62.61
2023-02-09T02:53:17.689Z,62.83
2023-02-09T02:54:37.699Z,62.04
2023-02-09T02:55:41.602Z,62.68
2023-02-09T02:56:48.196Z,63.13
2023-02-09T02:57:54.309Z,62.97
2023-02-09T02:59:00.567Z,63.19
2023-02-09T03:00:14.625Z,63.00
2023-02-09T03:01:22.914Z,62.86
2023-02-09T03:02:36.183Z,62.87
2023-02-09T03:03:40.996Z,62.99
2023-02-09T03:04:45.910Z,63.19
2023-02-09T03:05:49.420Z,63.27
2023-02-09T03:06:52.239Z,63.39
2023-02-09T03:07:54.856Z,63.17
2023-02-09T03:08:58.730Z,62.96
2023-02-09T03:10:03.226Z,63.27
2023-02-09T03:11:06.114Z,62.98
2023-02-09T03:12:38.591Z,62.99
2023-02-09T03:13:55.770Z,63.21
2023-02-09T03:15:25.838Z,62.89
2023-02-09T03:16:33.519Z,63.08
2023-02-09T03:17:57.916Z,63.11
2023-02-09T03:19:38.070Z,62.44
2023-02-09T03:20:57.417Z,62.03
2023-02-09T03:22:08.658Z,62.58
2023-02-09T03:23:27.975Z,62.74
2023-02-09T03:24:44.120Z,62.49
2023-02-09T03:25:51.022Z,62.57
2023-02-09T03:27:02.024Z,62.43
2023-02-09T03:28:17.544Z,63.02
2023-02-09T03:29:23.792Z,63.07
2023-02-09T03:30:27.412Z,63.47
2023-02-09T03:31:31.110Z,63.63
2023-02-09T03:32:40.257Z,63.72
2023-02-09T03:33:43.378Z,63.64
2023-02-09T03:34:47.438Z,63.35
2023-02-09T03:35:56.445Z,63.39
2023-02-09T03:36:59.795Z,63.81
2023-02-09T03:38:02.774Z,64.28
2023-02-09T03:39:06.036Z,64.18
2023-02-09T03:40:10.144Z,64.25
2023-02-09T03:41:13.226Z,64.12
2023-02-09T03:42:16.348Z,64.04
2023-02-09T03:43:19.025Z,64.38
2023-02-09T03:44:27.771Z,64.06
2023-02-09T03:45:30.523Z,64.18
2023-02-09T03:46:34.693Z,64.23
2023-02-09T03:47:37.476Z,64.03
2023-02-09T03:48:40.503Z,64.06
2023-02-09T03:49:43.633Z,63.99
2023-02-09T03:50:46.514Z,63.88
2023-02-09T03:51:49.519Z,64.10
2023-02-09T03:52:52.193Z,64.61
2023-02-09T03:53:55.065Z,64.55
2023-02-09T03:54:57.698Z,64.31
2023-02-09T03:56:01.950Z,64.10
2023-02-09T03:57:04.770Z,64.20
2023-02-09T03:58:07.442Z,64.31
2023-02-09T03:59:10.143Z,64.19
2023-02-09T04:00:13.602Z,64.75
2023-02-09T04:01:16.381Z,64.64
2023-02-09T04:02:19.169Z,64.29
2023-02-09T04:03:21.901Z,64.24
2023-02-09T04:04:25.063Z,64.63
2023-02-09T04:05:27.676Z,64.79
2023-02-09T04:06:32.822Z,64.89
2023-02-09T04:07:35.594Z,64.76
2023-02-09T04:08:38.253Z,64.66
2023-02-09T04:09:40.996Z,65.07
2023-02-09T04:10:43.825Z,64.93
2023-02-09T04:11:48.204Z,64.78
2023-02-09T04:12:50.855Z,64.72
2023-02-09T04:13:53.689Z,64.53
2023-02-09T04:14:56.348Z,64.63
2023-02-09T04:15:58.988Z,64.83
2023-02-09T04:17:01.641Z,64.75
2023-02-09T04:18:04.390Z,64.26
2023-02-09T04:19:07.274Z,64.82
2023-02-09T04:20:10.246Z,64.71
2023-02-09T04:21:13.730Z,64.81
2023-02-09T04:22:16.433Z,64.98
2023-02-09T04:23:20.997Z,64.66
2023-02-09T04:24:23.958Z,64.46
2023-02-09T04:25:26.594Z,64.30
2023-02-09T04:26:29.313Z,64.46
2023-02-09T04:27:32.001Z,64.70
2023-02-09T04:28:34.658Z,64.76
2023-02-09T04:29:37.259Z,64.89
2023-02-09T04:30:39.972Z,64.45
2023-02-09T04:31:42.658Z,64.94
2023-02-09T04:32:45.397Z,64.99
2023-02-09T04:33:48.046Z,64.68
2023-02-09T04:34:50.685Z,64.90
2023-02-09T04:35:54.250Z,64.50
2023-02-09T04:36:56.919Z,64.45
2023-02-09T04:37:59.605Z,64.58
2023-02-09T04:39:02.274Z,64.35
2023-02-09T04:40:07.463Z,64.57
2023-02-09T04:41:10.880Z,64.84
2023-02-09T04:42:13.519Z,64.76
2023-02-09T04:43:17.336Z,64.93
2023-02-09T04:44:20.108Z,64.66
2023-02-09T04:45:22.745Z,64.61
2023-02-09T04:46:25.389Z,64.25
2023-02-09T04:47:28.253Z,64.42
2023-02-09T04:48:31.698Z,64.35
2023-02-09T04:49:34.517Z,64.43
2023-02-09T04:50:37.160Z,64.63
2023-02-09T04:51:39.784Z,64.68
2023-02-09T04:52:42.439Z,64.77
2023-02-09T04:53:45.132Z,64.51
2023-02-09T04:54:47.840Z,64.78
2023-02-09T04:55:52.527Z,64.28
2023-02-09T04:57:15.142Z,64.71
2023-02-09T04:58:39.164Z,64.74
2023-02-09T04:59:42.831Z,64.38
2023-02-09T05:00:45.707Z,64.63
2023-02-09T05:01:48.556Z,64.70
2023-02-09T05:02:51.244Z,64.77
2023-02-09T05:03:54.503Z,64.65
2023-02-09T05:04:57.283Z,64.97
2023-02-09T05:06:02.663Z,65.12
2023-02-09T05:07:05.291Z,64.56
2023-02-09T05:08:08.608Z,64.48
2023-02-09T05:09:11.317Z,64.46
2023-02-09T05:10:14.104Z,64.28
2023-02-09T05:11:16.796Z,63.99
2023-02-09T05:12:19.421Z,64.47
2023-02-09T05:13:24.068Z,64.47
2023-02-09T05:14:26.738Z,64.44
2023-02-09T05:15:29.556Z,64.36
2023-02-09T05:16:32.154Z,64.38
2023-02-09T05:17:34.912Z,64.01
2023-02-09T05:18:37.953Z,64.28
2023-02-09T05:19:40.586Z,63.98
2023-02-09T05:20:45.420Z,64.04
2023-02-09T05:21:48.341Z,64.63
2023-02-09T05:22:50.974Z,64.66
2023-02-09T05:23:53.563Z,64.24
2023-02-09T05:24:56.251Z,64.00
2023-02-09T05:25:58.976Z,64.36
2023-02-09T05:27:01.618Z,65.13
2023-02-09T05:28:04.780Z,65.08
2023-02-09T05:29:07.437Z,64.97
2023-02-09T05:30:10.858Z,65.28
2023-02-09T05:31:13.826Z,65.58
2023-02-09T05:32:16.636Z,65.31
2023-02-09T05:33:19.315Z,65.47
2023-02-09T05:34:21.999Z,65.47
2023-02-09T05:35:24.867Z,65.35
2023-02-09T05:36:27.686Z,65.34
2023-02-09T05:37:30.332Z,65.32
2023-02-09T05:38:32.980Z,65.38
2023-02-09T05:39:35.650Z,65.47
2023-02-09T05:40:38.313Z,64.89
2023-02-09T05:41:59.609Z,64.63
2023-02-09T05:43:03.793Z,64.71
2023-02-09T05:44:06.680Z,65.54
2023-02-09T05:45:10.117Z,65.27
2023-02-09T05:46:12.778Z,64.97
2023-02-09T05:47:19.166Z,65.63
2023-02-09T05:48:21.786Z,65.60
2023-02-09T05:49:24.456Z,65.40
2023-02-09T05:50:27.140Z,65.45
2023-02-09T05:51:29.755Z,65.69
2023-02-09T05:52:32.471Z,65.33
2023-02-09T05:53:35.254Z,65.29
2023-02-09T05:54:38.231Z,65.10
2023-02-09T05:55:40.979Z,65.02
2023-02-09T05:56:44.347Z,65.14
2023-02-09T05:57:50.011Z,64.72
2023-02-09T05:58:52.677Z,65.20
2023-02-09T05:59:55.356Z,65.76
2023-02-09T06:00:58.108Z,65.68
2023-02-09T06:02:01.000Z,66.10
2023-02-09T06:03:03.805Z,66.23
2023-02-09T06:04:06.839Z,65.72
2023-02-09T06:05:09.556Z,66.19
2023-02-09T06:06:12.187Z,65.97
2023-02-09T06:07:14.864Z,66.20
2023-02-09T06:08:17.502Z,66.50
2023-02-09T06:09:20.600Z,66.76
2023-02-09T06:10:23.589Z,66.61
2023-02-09T06:11:26.282Z,66.33
2023-02-09T06:12:28.920Z,66.20
2023-02-09T06:13:31.582Z,66.38
2023-02-09T06:14:34.209Z,66.08
2023-02-09T06:15:36.827Z,66.25
2023-02-09T06:16:39.572Z,65.94
2023-02-09T06:17:42.233Z,65.50
2023-02-09T06:18:45.637Z,65.17
2023-02-09T06:19:48.315Z,65.82
2023-02-09T06:22:53.383Z,66.36
2023-02-09T06:23:56.288Z,66.04
2023-02-09T06:24:59.003Z,66.22
2023-02-09T06:26:06.353Z,66.06
2023-02-09T06:27:09.129Z,66.29
2023-02-09T06:28:12.472Z,66.06
2023-02-09T06:29:15.636Z,65.97
2023-02-09T06:30:18.328Z,65.72
2023-02-09T06:31:21.095Z,66.71
2023-02-09T06:32:23.758Z,66.30
2023-02-09T06:33:26.434Z,66.18
2023-02-09T06:34:29.302Z,66.09
2023-02-09T06:35:31.969Z,65.88
2023-02-09T06:36:34.831Z,66.07
2023-02-09T06:37:37.464Z,66.20
2023-02-09T06:38:40.244Z,66.12
2023-02-09T06:39:42.960Z,65.86
2023-02-09T06:40:45.796Z,65.79
2023-02-09T06:41:48.973Z,66.21
2023-02-09T06:42:51.675Z,66.40
2023-02-09T06:43:54.480Z,66.19
2023-02-09T06:45:00.538Z,66.29
2023-02-09T06:46:12.329Z,66.23
2023-02-09T06:47:15.070Z,66.16
2023-02-09T06:48:17.731Z,66.41
2023-02-09T06:49:22.915Z,66.46
2023-02-09T06:50:25.760Z,66.38
2023-02-09T06:51:28.592Z,66.08
2023-02-09T06:52:31.429Z,66.33
2023-02-09T06:53:34.062Z,66.65
2023-02-09T06:54:36.673Z,66.63
2023-02-09T06:55:39.473Z,66.25
2023-02-09T06:56:42.120Z,65.98
2023-02-09T06:57:44.730Z,65.87
2023-02-09T06:58:47.402Z,65.89
2023-02-09T06:59:50.021Z,66.05
2023-02-09T07:00:52.700Z,65.71
2023-02-09T07:01:55.348Z,65.71
2023-02-09T07:03:00.553Z,66.00
2023-02-09T07:04:03.319Z,65.98
2023-02-09T07:05:06.900Z,65.63
2023-02-09T07:06:16.351Z,65.85
2023-02-09T07:07:19.031Z,65.46
2023-02-09T07:08:21.671Z,65.23
2023-02-09T07:09:24.327Z,65.45
2023-02-09T07:10:27.170Z,65.43
2023-02-09T07:11:29.963Z,65.40
2023-02-09T07:12:32.851Z,65.33
2023-02-09T07:13:35.703Z,65.26
2023-02-09T07:14:38.988Z,64.90
2023-02-09T07:15:42.021Z,65.39
2023-02-09T07:16:44.836Z,65.45
2023-02-09T07:17:47.442Z,65.12
2023-02-09T07:18:50.097Z,65.04
2023-02-09T07:19:52.713Z,65.02
2023-02-09T07:21:00.366Z,65.26
2023-02-09T07:22:03.129Z,65.41
2023-02-09T07:23:05.854Z,65.19
2023-02-09T07:24:08.752Z,64.88
2023-02-09T07:25:11.653Z,64.77
2023-02-09T07:26:16.694Z,64.83
2023-02-09T07:27:20.697Z,64.69
2023-02-09T07:28:24.026Z,64.56
2023-02-09T07:29:26.771Z,64.11
2023-02-09T07:30:29.474Z,63.79
2023-02-09T07:31:32.355Z,63.96
2023-02-09T07:32:35.112Z,63.93
2023-02-09T07:33:38.639Z,63.98
2023-02-09T07:34:41.327Z,63.74
2023-02-09T07:35:43.988Z,63.21
2023-02-09T07:36:48.032Z,62.92
2023-02-09T07:37:51.144Z,62.72
2023-02-09T07:38:54.118Z,62.54
2023-02-09T07:39:56.765Z,62.30
2023-02-09T07:41:00.822Z,62.20
2023-02-09T07:42:03.517Z,62.11
2023-02-09T07:43:07.403Z,62.13
2023-02-09T07:44:12.835Z,62.28
2023-02-09T07:45:15.542Z,62.75
2023-02-09T07:46:20.301Z,63.10
2023-02-09T07:47:23.350Z,63.07
2023-02-09T07:48:27.132Z,63.56
2023-02-09T07:49:29.790Z,63.71
2023-02-09T07:50:32.718Z,63.15
2023-02-09T07:51:35.372Z,63.05
2023-02-09T07:52:38.057Z,62.75
2023-02-09T07:54:58.509Z,62.76
2023-02-09T07:56:01.286Z,62.42
2023-02-09T07:57:04.144Z,62.21
2023-02-09T07:58:06.784Z,61.71
2023-02-09T07:59:11.205Z,61.19
2023-02-09T08:00:14.619Z,61.69
2023-02-09T08:01:18.121Z,62.08
2023-02-09T08:02:29.667Z,61.77
2023-02-09T08:03:32.957Z,61.85
2023-02-09T08:04:35.597Z,61.80
2023-02-09T08:05:49.323Z,62.40
2023-02-09T08:06:53.063Z,61.63
2023-02-09T08:07:57.108Z,61.19
2023-02-09T08:09:01.977Z,60.93
2023-02-09T08:10:05.151Z,60.72
2023-02-09T08:11:07.984Z,59.62
2023-02-09T08:12:10.759Z,57.85
2023-02-09T08:13:15.298Z,58.48
2023-02-09T08:14:43.988Z,59.63
2023-02-09T08:15:52.665Z,56.08
2023-02-09T08:17:19.553Z,55.84
2023-02-09T08:18:26.435Z,55.56
2023-02-09T08:19:29.776Z,56.00
2023-02-09T08:20:33.445Z,54.93
2023-02-09T08:21:39.733Z,55.18
2023-02-09T08:22:47.649Z,54.65
2023-02-09T08:23:54.549Z,55.03
2023-02-09T08:24:58.163Z,54.70
2023-02-09T08:26:03.807Z,55.25
2023-02-09T08:27:06.466Z,54.33
2023-02-09T08:28:10.050Z,53.92
2023-02-09T08:29:13.617Z,53.99
2023-02-09T08:30:18.574Z,54.26
2023-02-09T08:31:23.236Z,54.52
2023-02-09T08:32:26.042Z,54.00
2023-02-09T08:33:28.759Z,54.30
2023-02-09T08:34:31.461Z,54.05
2023-02-09T08:35:34.240Z,54.23
2023-02-09T08:36:38.612Z,54.80
2023-02-09T08:37:41.410Z,54.60
2023-02-09T08:38:45.328Z,53.35
2023-02-09T08:39:47.963Z,52.91
2023-02-09T08:40:50.654Z,52.65
2023-02-09T08:41:53.288Z,52.27
2023-02-09T08:42:55.988Z,53.01
2023-02-09T08:43:58.668Z,52.51
2023-02-09T08:45:01.376Z,52.45
2023-02-09T08:46:14.531Z,52.70
2023-02-09T08:47:17.452Z,53.00
2023-02-09T08:48:20.088Z,52.54
2023-02-09T08:49:22.983Z,52.57
2023-02-09T08:50:25.716Z,52.57
2023-02-09T08:51:28.507Z,52.65
2023-02-09T08:52:31.153Z,52.17
2023-02-09T08:53:34.181Z,52.71
2023-02-09T08:54:37.112Z,52.42
2023-02-09T08:55:40.331Z,51.92
2023-02-09T08:56:45.239Z,51.71
2023-02-09T08:57:47.933Z,51.62
2023-02-09T08:58:51.233Z,51.92
2023-02-09T08:59:53.888Z,51.76
2023-02-09T09:01:01.528Z,51.39
2023-02-09T09:02:04.278Z,51.16
2023-02-09T09:03:07.462Z,50.87
2023-02-09T09:04:11.057Z,50.15
2023-02-09T09:05:13.988Z,49.83
2023-02-09T09:06:16.825Z,50.33
2023-02-09T09:07:19.448Z,50.20
2023-02-09T09:08:22.112Z,49.61
2023-02-09T09:09:24.800Z,51.18
2023-02-09T09:10:27.599Z,50.42
2023-02-09T09:11:30.888Z,50.34
2023-02-09T09:12:33.615Z,49.86
2023-02-09T09:13:36.286Z,50.77
2023-02-09T09:14:39.285Z,49.95
2023-02-09T09:15:44.273Z,49.40
2023-02-09T09:16:47.577Z,48.95
2023-02-09T09:17:50.405Z,49.47
2023-02-09T09:18:53.185Z,49.02
2023-02-09T09:19:57.407Z,50.28
2023-02-09T09:21:00.076Z,50.46
2023-02-09T09:22:04.650Z,50.32
2023-02-09T09:23:07.689Z,49.98
2023-02-09T09:24:10.380Z,48.74
2023-02-09T09:25:13.028Z,49.19
2023-02-09T09:26:16.647Z,49.82
2023-02-09T09:27:19.448Z,50.48
2023-02-09T09:28:22.237Z,50.82
2023-02-09T09:29:25.758Z,50.86
2023-02-09T09:30:28.730Z,49.56
2023-02-09T09:31:34.430Z,49.59
2023-02-09T09:32:37.215Z,49.22
2023-02-09T09:33:40.305Z,48.66
2023-02-09T09:34:43.354Z,49.00
2023-02-09T09:35:46.311Z,48.62
2023-02-09T09:36:49.175Z,48.72
2023-02-09T09:37:51.857Z,49.98
2023-02-09T09:38:56.311Z,48.20
2023-02-09T09:40:02.033Z,48.99
2023-02-09T09:41:20.028Z,49.48
2023-02-09T09:42:28.256Z,48.41
2023-02-09T09:43:35.006Z,48.27
2023-02-09T09:44:47.335Z,48.44
2023-02-09T09:45:50.949Z,47.77
2023-02-09T09:46:55.305Z,47.35
2023-02-09T09:47:58.450Z,47.86
2023-02-09T09:49:01.886Z,48.44
2023-02-09T09:50:08.724Z,49.67
2023-02-09T09:51:17.201Z,47.72
2023-02-09T09:52:22.314Z,47.63
2023-02-09T09:53:34.528Z,48.44
2023-02-09T09:54:38.738Z,47.55
2023-02-09T09:55:42.093Z,46.64
2023-02-09T09:56:44.814Z,45.92
2023-02-09T09:57:47.654Z,46.21
2023-02-09T09:58:52.729Z,46.36
2023-02-09T09:59:56.900Z,47.82
2023-02-09T10:01:00.039Z,48.32
2023-02-09T10:02:14.103Z,48.31
2023-02-09T10:03:19.923Z,47.31
2023-02-09T10:04:22.721Z,46.35
2023-02-09T10:05:29.106Z,46.45
2023-02-09T10:06:34.867Z,47.17
2023-02-09T10:07:40.241Z,46.57
2023-02-09T10:08:56.263Z,46.46
2023-02-09T10:10:08.124Z,45.10
2023-02-09T10:11:19.799Z,45.28
2023-02-09T10:12:37.000Z,45.50
2023-02-09T10:13:55.706Z,44.80
2023-02-09T10:14:59.200Z,44.67
2023-02-09T10:16:02.772Z,43.86
2023-02-09T10:17:05.529Z,44.85
2023-02-09T10:18:15.233Z,43.96
2023-02-09T10:19:27.217Z,44.90
2023-02-09T10:20:53.083Z,44.38
2023-02-09T10:21:56.257Z,43.88
2023-02-09T10:23:00.913Z,43.94
2023-02-09T10:24:03.552Z,44.45
2023-02-09T10:25:40.244Z,45.45
2023-02-09T10:26:44.077Z,45.38
2023-02-09T10:27:47.963Z,45.32
2023-02-09T10:28:57.339Z,44.82
2023-02-09T10:30:29.136Z,44.40
2023-02-09T10:32:06.437Z,44.12
2023-02-09T10:33:15.897Z,44.62
2023-02-09T10:34:28.031Z,43.75
2023-02-09T10:35:43.446Z,43.24
2023-02-09T10:37:17.469Z,43.65
2023-02-09T10:38:22.387Z,44.30
2023-02-09T10:39:30.379Z,44.25
2023-02-09T10:40:35.493Z,44.28
2023-02-09T10:41:41.538Z,44.44
2023-02-09T10:42:58.144Z,44.64
2023-02-09T10:44:00.894Z,43.95
2023-02-09T10:45:22.756Z,44.00
2023-02-09T10:46:26.017Z,44.07
2023-02-09T10:47:31.776Z,44.04
2023-02-09T10:48:42.263Z,43.70
2023-02-09T10:49:44.904Z,43.35
2023-02-09T10:51:08.208Z,43.81
2023-02-09T10:52:13.907Z,42.78
2023-02-09T10:53:33.397Z,42.57
2023-02-09T10:54:36.509Z,42.19
2023-02-09T10:55:42.711Z,42.74
2023-02-09T10:56:49.591Z,43.00
2023-02-09T10:57:52.276Z,43.68
2023-02-09T10:59:14.850Z,43.85
2023-02-09T11:00:17.486Z,43.31
2023-02-09T11:01:24.629Z,43.34
2023-02-09T11:02:43.002Z,43.96
2023-02-09T11:04:00.395Z,40.81
2023-02-09T11:05:04.421Z,41.24
2023-02-09T11:06:20.823Z,41.41
2023-02-09T11:07:31.164Z,40.83
2023-02-09T11:08:40.963Z,41.24
2023-02-09T11:09:48.736Z,40.01
2023-02-09T11:11:14.078Z,40.33
2023-02-09T11:12:16.838Z,41.71
2023-02-09T11:13:26.427Z,41.30
2023-02-09T11:14:29.286Z,41.20
2023-02-09T11:15:49.010Z,40.99
2023-02-09T11:17:16.277Z,40.87
2023-02-09T11:18:25.548Z,42.09
2023-02-09T11:19:55.741Z,42.14
2023-02-09T11:21:32.996Z,41.49
2023-02-09T11:23:03.381Z,41.62
2023-02-09T11:24:26.318Z,42.01
2023-02-09T11:25:51.276Z,41.36
2023-02-09T11:27:03.184Z,42.08
2023-02-09T11:28:42.197Z,41.12
2023-02-09T11:29:53.699Z,40.43
2023-02-09T11:31:02.466Z,39.53
2023-02-09T11:32:26.516Z,40.49
2023-02-09T11:33:41.654Z,41.58
2023-02-09T11:35:07.604Z,40.20
2023-02-09T11:36:34.942Z,39.99
2023-02-09T11:37:56.212Z,39.97
2023-02-09T11:39:27.743Z,41.22
2023-02-09T11:40:44.251Z,41.33
2023-02-09T11:42:11.214Z,40.73
2023-02-09T11:43:20.979Z,41.14
2023-02-09T11:45:07.990Z,40.81
2023-02-09T11:46:19.812Z,40.03
2023-02-09T11:47:39.003Z,40.67
2023-02-09T11:48:50.514Z,40.73
2023-02-09T11:49:55.550Z,40.79
2023-02-09T11:51:22.027Z,42.04
2023-02-09T11:52:43.682Z,40.14
2023-02-09T11:54:06.877Z,39.82
2023-02-09T11:55:49.678Z,41.49
2023-02-09T11:57:00.514Z,41.97
2023-02-09T11:58:29.240Z,41.22
2023-02-09T11:59:46.649Z,41.05
2023-02-09T12:01:10.017Z,41.99
2023-02-09T12:02:28.844Z,42.26
2023-02-09T12:03:31.518Z,42.68
2023-02-09T12:05:02.318Z,43.20
2023-02-09T12:06:06.188Z,42.85
2023-02-09T12:07:20.136Z,42.38
2023-02-09T12:08:28.447Z,41.51
2023-02-09T12:09:37.656Z,41.54
2023-02-09T12:11:10.468Z,41.96
2023-02-09T12:12:34.389Z,41.20
2023-02-09T12:13:40.329Z,40.27
2023-02-09T12:14:54.932Z,40.70
2023-02-09T12:16:01.873Z,41.48
2023-02-09T12:17:16.597Z,41.63
2023-02-09T12:18:25.887Z,41.47
2023-02-09T12:19:42.146Z,41.74
2023-02-09T12:20:57.304Z,41.76
2023-02-09T12:22:34.701Z,42.54
2023-02-09T12:23:38.270Z,42.13
2023-02-09T12:24:41.854Z,41.67
2023-02-09T12:25:54.767Z,41.77
2023-02-09T12:26:58.566Z,41.60
2023-02-09T12:28:10.513Z,41.94
2023-02-09T12:29:27.644Z,41.62
2023-02-09T12:30:53.195Z,42.17
2023-02-09T12:32:05.128Z,42.11
2023-02-09T12:33:25.636Z,42.28
2023-02-09T12:34:43.147Z,42.46
2023-02-09T12:36:11.345Z,42.94
2023-02-09T12:37:13.926Z,42.61
2023-02-09T12:38:23.053Z,42.27
2023-02-09T12:39:27.729Z,42.68
2023-02-09T12:40:39.130Z,41.90
2023-02-09T12:41:41.749Z,41.82
2023-02-09T12:42:48.173Z,41.64
2023-02-09T12:43:51.864Z,42.01
2023-02-09T12:44:57.408Z,42.03
2023-02-09T12:46:31.571Z,42.20
2023-02-09T12:47:46.633Z,42.15
2023-02-09T12:48:53.772Z,42.01
2023-02-09T12:50:05.572Z,41.87
2023-02-09T12:51:53.912Z,41.39
2023-02-09T12:53:21.032Z,41.76
2023-02-09T12:54:53.882Z,42.22
2023-02-09T12:56:10.047Z,41.76
2023-02-09T12:57:19.805Z,40.99
2023-02-09T12:58:46.450Z,41.16
2023-02-09T12:59:52.055Z,41.37
2023-02-09T13:00:56.273Z,41.53
2023-02-09T13:02:14.355Z,41.46
2023-02-09T13:03:21.337Z,41.63
2023-02-09T13:04:24.502Z,41.42
2023-02-09T13:05:39.131Z,41.10
2023-02-09T13:06:52.532Z,41.29
2023-02-09T13:08:14.305Z,41.51
2023-02-09T13:09:24.549Z,41.55
2023-02-09T13:10:42.928Z,41.76
2023-02-09T13:11:52.593Z,41.72
2023-02-09T13:13:03.890Z,41.69
2023-02-09T13:14:10.703Z,41.09
2023-02-09T13:15:16.004Z,41.09
2023-02-09T13:16:31.393Z,41.57
2023-02-09T13:17:53.844Z,41.76
2023-02-09T13:19:47.892Z,42.27
2023-02-09T13:21:00.487Z,43.25
2023-02-09T13:22:14.411Z,42.81
2023-02-09T13:23:35.513Z,42.06
2023-02-09T13:24:45.357Z,42.59
2023-02-09T13:25:48.375Z,42.36
2023-02-09T13:26:56.647Z,42.54
2023-02-09T13:28:18.493Z,42.06
2023-02-09T13:29:24.562Z,42.12
2023-02-09T13:30:34.497Z,42.43
2023-02-09T13:31:39.141Z,42.51
2023-02-09T13:32:44.397Z,42.57
2023-02-09T13:33:53.289Z,42.59
2023-02-09T13:35:07.542Z,42.81
2023-02-09T13:36:28.031Z,42.23
2023-02-09T13:37:41.969Z,42.24
2023-02-09T13:38:44.812Z,41.97
2023-02-09T13:39:56.060Z,42.31
2023-02-09T13:40:59.468Z,42.68
2023-02-09T13:42:02.140Z,43.19
2023-02-09T13:43:13.775Z,42.68
2023-02-09T13:44:35.089Z,42.08
2023-02-09T13:45:54.894Z,42.69
2023-02-09T13:47:00.371Z,42.77
2023-02-09T13:48:05.396Z,43.07
2023-02-09T13:49:14.045Z,43.33
2023-02-09T13:50:20.092Z,42.80
2023-02-09T13:51:24.691Z,42.93
2023-02-09T13:52:32.858Z,42.95
2023-02-09T13:53:35.485Z,42.65
2023-02-09T13:54:38.785Z,42.62
2023-02-09T13:55:41.928Z,42.91
2023-02-09T13:56:44.604Z,42.24
2023-02-09T13:58:08.698Z,42.47
2023-02-09T13:59:18.472Z,42.21
2023-02-09T14:00:29.960Z,42.55
2023-02-09T14:01:35.573Z,42.58
2023-02-09T14:02:39.252Z,43.41
2023-02-09T14:03:56.629Z,42.78
2023-02-09T14:05:03.810Z,42.54
2023-02-09T14:06:19.152Z,42.58
2023-02-09T14:07:25.636Z,43.61
2023-02-09T14:08:30.370Z,42.95
2023-02-09T14:09:44.147Z,42.53
2023-02-09T14:10:55.535Z,42.88
2023-02-09T14:12:04.005Z,43.08
2023-02-09T14:13:19.410Z,43.11
2023-02-09T14:14:50.437Z,41.67
2023-02-09T14:16:09.979Z,41.92
2023-02-09T14:17:33.639Z,41.49
2023-02-09T14:18:45.321Z,41.07
2023-02-09T14:19:49.851Z,41.30
2023-02-09T14:21:16.909Z,41.76
2023-02-09T14:22:35.743Z,42.01
2023-02-09T14:23:39.450Z,41.98
2023-02-09T14:24:45.419Z,42.00
2023-02-09T14:26:03.971Z,42.06
2023-02-09T14:27:23.636Z,42.08
2023-02-09T14:28:26.603Z,42.30
2023-02-09T14:29:32.083Z,42.17
2023-02-09T14:30:51.507Z,41.98
2023-02-09T14:32:32.030Z,42.40
2023-02-09T14:34:54.079Z,42.41
2023-02-09T14:36:00.282Z,42.67
2023-02-09T14:37:24.706Z,43.11
2023-02-09T14:38:40.011Z,43.06